Ana Sayfa
METAR-TAF:

METAR-TAF

Havaalanları :

Wainwright, Alaska, Amerika Birleşik Devletleri

Enlem: 70-38N, Boylam: 159-51W, yükseklik: 12 m

Güncel hava durumu gözlemi

Rapor saat 03:53 UTC de 1 saat ve 16 dakika önce yapıldı.
Rüzgar güney/güneybatıdan 21 kt
Sıcaklık -6°C
Nem 79%
Basınç 1016 hPa
1800 ft yükseklikte çok bulutlu

METAR: PAWI 010353Z AUTO 21021KT OVC018 M06/M09 A3000 RMK PK WND 21028/0347 SLP159 T10611094 TSNO PNO $ VIA AUTODIAL

Saat: 21:09 (05:09 UTC)


TAF: eksik

4.000'den fazla havaalanı için hava durumu gözlemleri ve tahminleri (METAR ve TAF raporları).

Kullanılabilir istasyonlar harita üzerinde sarı ve kırmızı noktalarla gösterilir.

İstasyonun adını görmek için fareyi noktanın üzerinde gezdirin.

Sonrasında hava gözlem ve tahminlerini görmek için tıklayın.

Haritayı değiştirmek için: yaklaştırmak için siyah artı işaretli yeşil düğmeye ve uzaklaştırmak için de eksi işaretli düğmeye hızla tıklayın; bitişik haritalar için yeşil okları kullanın.


METAR-TAF: